Time;durP1;ratioP1;P1;durP2;ratioP2;P2;SDS_P1;SDS_P2;PMS_P1;PMS_P2;Temp;Humidity;BMP_temperature;BMP_pressure;BME280_temperature;BME280_humidity;BME280_pressure;Samples;Min_cycle;Max_cycle;Signal;HPM_P1;HPM_P2
2020/12/09 00:00:50;;;;;;;25.05;17.70;;;;;;;;;;5022881;28;20654;-75
2020/12/09 00:03:16;;;;;;;26.65;16.73;;;;;;;;;;5020274;28;20229;-75
2020/12/09 00:05:42;;;;;;;25.17;16.73;;;;;;;;;;5033005;28;20655;-75
2020/12/09 00:08:09;;;;;;;21.58;14.80;;;;;;;;;;5022182;28;20246;-75
2020/12/09 00:10:35;;;;;;;23.42;15.75;;;;;;;;;;5024396;28;20571;-75
2020/12/09 00:13:01;;;;;;;27.83;15.73;;;;;;;;;;5017760;28;20203;-75
2020/12/09 00:15:27;;;;;;;24.98;16.25;;;;;;;;;;5023994;28;20189;-75
2020/12/09 00:17:53;;;;;;;28.45;15.93;;;;;;;;;;5021736;28;20186;-75
2020/12/09 00:20:19;;;;;;;26.13;16.40;;;;;;;;;;5022638;28;20217;-75
2020/12/09 00:22:45;;;;;;;19.42;14.70;;;;;;;;;;5012914;28;20249;-75
2020/12/09 00:25:11;;;;;;;21.77;14.90;;;;;;;;;;5018713;28;20245;-75
2020/12/09 00:27:37;;;;;;;19.65;15.40;;;;;;;;;;5020752;28;20197;-75
2020/12/09 00:30:04;;;;;;;22.70;15.13;;;;;;;;;;5024724;28;20210;-75
2020/12/09 00:32:30;;;;;;;16.33;13.38;;;;;;;;;;5019120;28;20186;-75
2020/12/09 00:34:56;;;;;;;26.60;15.65;;;;;;;;;;5023826;28;20453;-75
2020/12/09 00:37:22;;;;;;;18.98;13.93;;;;;;;;;;5025508;28;20186;-75
2020/12/09 00:39:48;;;;;;;21.30;13.80;;;;;;;;;;5026912;28;20174;-75
2020/12/09 00:42:14;;;;;;;24.67;13.45;;;;;;;;;;5039820;28;20206;-75
2020/12/09 00:44:40;;;;;;;17.70;13.50;;;;;;;;;;5023642;28;20193;-75
2020/12/09 00:47:06;;;;;;;23.95;14.35;;;;;;;;;;5016699;28;20190;-75
2020/12/09 00:49:43;;;;;;;17.67;13.55;;;;;;;;;;5022245;28;20670;-75
2020/12/09 00:52:18;;;;;;;19.02;13.55;;;;;;;;;;5010636;28;20187;-75
2020/12/09 00:54:44;;;;;;;21.00;13.45;;;;;;;;;;5016609;28;20179;-75
2020/12/09 00:57:10;;;;;;;18.33;12.77;;;;;;;;;;5032871;28;20269;-75
2020/12/09 00:59:36;;;;;;;18.83;13.50;;;;;;;;;;5025628;28;20190;-75
2020/12/09 01:02:02;;;;;;;20.42;12.85;;;;;;;;;;5027604;28;20202;-75
2020/12/09 01:04:28;;;;;;;18.98;12.50;;;;;;;;;;5023996;28;20214;-75
2020/12/09 01:06:54;;;;;;;19.30;13.90;;;;;;;;;;5027090;28;20722;-75
2020/12/09 01:09:20;;;;;;;19.80;13.07;;;;;;;;;;5025132;28;20221;-75
2020/12/09 01:11:46;;;;;;;21.80;14.80;;;;;;;;;;5020058;28;20193;-75
2020/12/09 01:14:12;;;;;;;21.52;13.50;;;;;;;;;;5018387;28;20201;-75
2020/12/09 01:16:38;;;;;;;20.33;13.73;;;;;;;;;;5018510;28;20656;-75
2020/12/09 01:19:04;;;;;;;21.35;13.00;;;;;;;;;;5017796;28;20215;-75
2020/12/09 01:21:30;;;;;;;20.25;13.60;;;;;;;;;;5021856;28;20174;-74
2020/12/09 01:23:56;;;;;;;18.20;12.95;;;;;;;;;;5021476;28;20186;-75
2020/12/09 01:26:22;;;;;;;19.98;12.05;;;;;;;;;;5019620;28;20193;-75
2020/12/09 01:28:48;;;;;;;20.75;13.38;;;;;;;;;;5020276;28;20210;-74
2020/12/09 01:31:18;;;;;;;18.83;12.00;;;;;;;;;;5023031;28;20182;-75
2020/12/09 01:33:44;;;;;;;17.83;12.30;;;;;;;;;;5016931;28;20225;-75
2020/12/09 01:36:10;;;;;;;18.83;10.85;;;;;;;;;;5022852;28;20195;-74
2020/12/09 01:38:36;;;;;;;15.25;10.60;;;;;;;;;;5021529;28;20200;-75
2020/12/09 01:41:02;;;;;;;21.65;11.90;;;;;;;;;;5025311;28;20198;-75
2020/12/09 01:43:28;;;;;;;16.40;12.70;;;;;;;;;;5026609;28;20234;-75
2020/12/09 01:45:54;;;;;;;16.58;12.25;;;;;;;;;;5024304;28;20187;-77
2020/12/09 01:48:20;;;;;;;16.85;12.02;;;;;;;;;;5018624;28;20187;-75
2020/12/09 01:50:46;;;;;;;18.30;10.27;;;;;;;;;;5025245;28;20174;-75
2020/12/09 01:53:12;;;;;;;15.77;10.60;;;;;;;;;;5019923;28;20353;-75
2020/12/09 01:55:38;;;;;;;13.52;9.50;;;;;;;;;;5019605;28;20187;-75
2020/12/09 01:58:04;;;;;;;16.08;10.77;;;;;;;;;;5019493;28;20198;-75
2020/12/09 02:00:32;;;;;;;19.45;10.70;;;;;;;;;;5021156;28;20178;-75
2020/12/09 02:02:58;;;;;;;14.90;10.18;;;;;;;;;;5023351;28;20213;-75
2020/12/09 02:05:24;;;;;;;14.30;9.02;;;;;;;;;;5015773;28;20191;-75
2020/12/09 02:07:50;;;;;;;16.20;10.02;;;;;;;;;;5021526;28;20229;-75
2020/12/09 02:10:17;;;;;;;14.25;10.38;;;;;;;;;;5025424;28;20236;-75
2020/12/09 02:12:43;;;;;;;11.50;9.80;;;;;;;;;;5020465;28;20190;-75
2020/12/09 02:15:09;;;;;;;13.10;9.55;;;;;;;;;;5024263;28;20190;-75
2020/12/09 02:17:35;;;;;;;13.93;9.82;;;;;;;;;;5023389;28;20178;-75
2020/12/09 02:20:01;;;;;;;13.00;8.95;;;;;;;;;;5012479;28;20178;-83
2020/12/09 02:22:27;;;;;;;13.50;9.90;;;;;;;;;;5037327;28;20210;-83
2020/12/09 02:24:53;;;;;;;17.08;10.60;;;;;;;;;;5022959;28;20182;-83
2020/12/09 02:27:19;;;;;;;9.68;7.60;;;;;;;;;;5024880;28;20197;-82
2020/12/09 02:29:45;;;;;;;14.65;9.60;;;;;;;;;;5024554;28;20190;-84
2020/12/09 02:32:10;;;;;;;12.75;8.45;;;;;;;;;;5023470;28;20194;-83
2020/12/09 02:34:36;;;;;;;9.80;8.80;;;;;;;;;;5037036;28;20216;-84
2020/12/09 02:37:03;;;;;;;13.25;9.35;;;;;;;;;;5019916;28;20182;-84
2020/12/09 02:39:33;;;;;;;10.75;7.60;;;;;;;;;;5025113;28;20197;-84
2020/12/09 02:41:59;;;;;;;10.65;8.27;;;;;;;;;;5020939;28;20214;-84
2020/12/09 02:44:25;;;;;;;9.57;8.43;;;;;;;;;;5023802;28;20562;-84
2020/12/09 02:46:51;;;;;;;11.88;8.48;;;;;;;;;;5021267;28;20176;-83
2020/12/09 02:49:17;;;;;;;12.35;8.77;;;;;;;;;;5021259;28;20214;-83
2020/12/09 02:51:43;;;;;;;12.82;7.82;;;;;;;;;;5023674;28;20188;-82
2020/12/09 02:54:09;;;;;;;14.20;9.32;;;;;;;;;;5025974;28;20193;-81
2020/12/09 02:56:35;;;;;;;10.38;7.90;;;;;;;;;;5019744;28;20187;-84
2020/12/09 02:59:01;;;;;;;12.15;7.85;;;;;;;;;;5023859;28;20190;-83
2020/12/09 03:01:32;;;;;;;12.52;9.60;;;;;;;;;;5024189;28;20243;-84
2020/12/09 03:03:57;;;;;;;10.05;7.07;;;;;;;;;;5021415;28;20193;-84
2020/12/09 03:06:23;;;;;;;11.80;8.32;;;;;;;;;;5019794;28;20607;-84
2020/12/09 03:08:49;;;;;;;10.13;8.18;;;;;;;;;;5025712;28;20191;-83
2020/12/09 03:11:15;;;;;;;12.32;8.20;;;;;;;;;;5038399;28;20314;-83
2020/12/09 03:13:41;;;;;;;13.23;8.30;;;;;;;;;;5019605;28;20232;-84
2020/12/09 03:16:07;;;;;;;10.75;7.55;;;;;;;;;;5022095;28;20189;-84
2020/12/09 03:18:33;;;;;;;11.55;7.82;;;;;;;;;;5023769;28;20269;-84
2020/12/09 03:20:59;;;;;;;13.60;8.32;;;;;;;;;;5021760;28;20194;-83
2020/12/09 03:23:25;;;;;;;11.18;7.68;;;;;;;;;;5021871;28;20217;-82
2020/12/09 03:25:51;;;;;;;10.65;7.70;;;;;;;;;;5024388;28;20205;-84
2020/12/09 03:28:17;;;;;;;11.35;8.00;;;;;;;;;;5022514;28;20187;-84
2020/12/09 03:30:43;;;;;;;9.23;7.07;;;;;;;;;;5018832;28;20189;-84
2020/12/09 03:33:09;;;;;;;11.93;7.72;;;;;;;;;;5019609;28;20688;-84
2020/12/09 03:35:36;;;;;;;9.63;7.10;;;;;;;;;;5021956;28;20182;-84
2020/12/09 03:38:02;;;;;;;9.65;6.85;;;;;;;;;;5014172;28;20174;-82
2020/12/09 03:40:28;;;;;;;16.75;8.27;;;;;;;;;;5012366;28;20187;-84
2020/12/09 03:42:54;;;;;;;9.18;7.22;;;;;;;;;;5013369;28;20217;-84
2020/12/09 03:45:22;;;;;;;11.80;7.60;;;;;;;;;;5014617;28;20233;-84
2020/12/09 03:47:48;;;;;;;9.27;7.18;;;;;;;;;;5013047;28;20172;-84
2020/12/09 03:50:14;;;;;;;11.45;8.02;;;;;;;;;;5031395;28;20190;-83
2020/12/09 03:52:40;;;;;;;9.73;7.18;;;;;;;;;;5023657;28;20206;-83
2020/12/09 03:55:06;;;;;;;11.43;7.45;;;;;;;;;;5024829;28;20174;-83
2020/12/09 03:57:32;;;;;;;10.63;7.18;;;;;;;;;;5023269;28;20750;-84
2020/12/09 03:59:58;;;;;;;8.50;6.20;;;;;;;;;;5015900;28;20183;-84
2020/12/09 04:02:24;;;;;;;11.75;6.65;;;;;;;;;;5039286;28;20233;-84
2020/12/09 04:04:50;;;;;;;10.73;6.88;;;;;;;;;;5024753;28;20171;-83
2020/12/09 04:07:16;;;;;;;9.35;6.25;;;;;;;;;;5039074;28;20281;-83
2020/12/09 04:09:42;;;;;;;9.45;6.47;;;;;;;;;;5031572;28;20575;-84
2020/12/09 04:12:08;;;;;;;8.32;5.70;;;;;;;;;;5023903;28;20278;-83
2020/12/09 04:14:34;;;;;;;8.25;6.55;;;;;;;;;;5023523;28;20237;-83
2020/12/09 04:17:00;;;;;;;11.13;7.05;;;;;;;;;;5026758;28;20184;-84
2020/12/09 04:19:26;;;;;;;9.45;7.55;;;;;;;;;;5030489;28;20185;-84
2020/12/09 04:21:52;;;;;;;7.35;6.60;;;;;;;;;;5026350;28;20213;-83
2020/12/09 04:24:18;;;;;;;8.00;6.18;;;;;;;;;;5022838;28;20193;-84
2020/12/09 04:26:44;;;;;;;12.85;7.15;;;;;;;;;;5022525;28;20192;-84
2020/12/09 04:29:10;;;;;;;8.32;6.78;;;;;;;;;;5032769;28;20198;-84
2020/12/09 04:31:36;;;;;;;7.10;5.57;;;;;;;;;;5024387;28;20190;-83
2020/12/09 04:34:02;;;;;;;8.55;6.40;;;;;;;;;;5024641;28;20197;-82
2020/12/09 04:36:29;;;;;;;9.20;5.60;;;;;;;;;;5023175;28;20679;-83
2020/12/09 04:38:55;;;;;;;7.53;6.45;;;;;;;;;;5022658;28;20193;-83
2020/12/09 04:41:21;;;;;;;8.13;6.15;;;;;;;;;;5019545;28;20247;-84
2020/12/09 04:43:47;;;;;;;12.65;7.20;;;;;;;;;;5013022;28;20230;-84
2020/12/09 04:46:13;;;;;;;9.13;6.25;;;;;;;;;;5019168;28;20213;-84
2020/12/09 04:48:53;;;;;;;7.97;6.18;;;;;;;;;;5035270;28;20182;-83
2020/12/09 04:51:28;;;;;;;8.00;6.53;;;;;;;;;;5023140;28;20191;-84
2020/12/09 04:54:08;;;;;;;8.02;5.90;;;;;;;;;;5022577;28;20185;-84
2020/12/09 04:56:37;;;;;;;7.45;6.07;;;;;;;;;;5022439;28;20178;-84
2020/12/09 04:59:12;;;;;;;10.05;6.88;;;;;;;;;;5022097;28;20194;-84
2020/12/09 05:01:45;;;;;;;7.45;5.82;;;;;;;;;;5023920;28;20184;-84
2020/12/09 05:04:14;;;;;;;10.43;6.78;;;;;;;;;;5023137;28;20198;-84
2020/12/09 05:06:40;;;;;;;8.38;6.78;;;;;;;;;;5013029;28;20226;-84
2020/12/09 05:09:09;;;;;;;7.85;6.05;;;;;;;;;;5021829;28;20250;-84
2020/12/09 05:11:35;;;;;;;8.43;6.00;;;;;;;;;;5039078;28;20182;-84
2020/12/09 05:14:02;;;;;;;7.63;6.05;;;;;;;;;;5024925;28;20186;-81
2020/12/09 05:16:28;;;;;;;8.48;6.20;;;;;;;;;;5027711;28;20648;-83
2020/12/09 05:18:58;;;;;;;9.57;6.57;;;;;;;;;;5026295;28;20186;-84
2020/12/09 05:21:25;;;;;;;7.05;5.53;;;;;;;;;;5027142;28;20281;-83
2020/12/09 05:23:51;;;;;;;6.97;5.90;;;;;;;;;;5027927;28;20198;-84
2020/12/09 05:26:23;;;;;;;9.30;5.80;;;;;;;;;;5022768;28;20284;-85
2020/12/09 05:29:02;;;;;;;9.30;5.93;;;;;;;;;;5034014;28;20240;-84
2020/12/09 05:31:28;;;;;;;9.07;6.50;;;;;;;;;;5027923;28;20192;-82
2020/12/09 05:33:54;;;;;;;8.77;6.70;;;;;;;;;;5019844;28;20214;-85
2020/12/09 05:36:21;;;;;;;8.50;5.93;;;;;;;;;;5027438;28;20186;-84
2020/12/09 05:39:02;;;;;;;5.88;4.88;;;;;;;;;;5038778;28;20198;-84
2020/12/09 05:41:31;;;;;;;8.35;5.40;;;;;;;;;;5024793;28;20186;-84
2020/12/09 05:44:00;;;;;;;9.50;5.63;;;;;;;;;;5025054;28;20202;-84
2020/12/09 05:46:26;;;;;;;7.88;6.00;;;;;;;;;;5022336;28;20193;-84
2020/12/09 05:48:51;;;;;;;6.88;5.80;;;;;;;;;;5031079;28;20178;-83
2020/12/09 05:51:18;;;;;;;5.78;4.93;;;;;;;;;;5033906;28;20236;-84
2020/12/09 05:53:46;;;;;;;10.07;6.25;;;;;;;;;;5026894;28;20195;-84
2020/12/09 05:56:16;;;;;;;7.93;5.93;;;;;;;;;;5041872;28;20593;-84
2020/12/09 05:58:43;;;;;;;9.68;7.28;;;;;;;;;;5025028;28;20190;-83
2020/12/09 06:01:13;;;;;;;10.10;5.90;;;;;;;;;;5042843;28;20190;-84
2020/12/09 06:03:40;;;;;;;6.75;4.75;;;;;;;;;;5025410;28;20214;-84
2020/12/09 06:06:10;;;;;;;6.75;5.80;;;;;;;;;;5026912;28;20201;-83
2020/12/09 06:08:43;;;;;;;6.50;4.10;;;;;;;;;;5026653;28;20203;-83
2020/12/09 06:11:10;;;;;;;4.95;4.45;;;;;;;;;;5026897;28;20250;-84
2020/12/09 06:13:36;;;;;;;7.30;5.85;;;;;;;;;;5041718;28;20190;-83
2020/12/09 06:16:03;;;;;;;6.82;5.35;;;;;;;;;;5026563;28;21681;-85
2020/12/09 06:18:33;;;;;;;10.07;5.65;;;;;;;;;;5019574;28;20254;-85
2020/12/09 06:20:59;;;;;;;6.63;5.93;;;;;;;;;;5025001;28;20670;-80
2020/12/09 06:23:27;;;;;;;5.78;5.13;;;;;;;;;;5025009;28;20738;-84
2020/12/09 06:25:54;;;;;;;7.40;4.88;;;;;;;;;;5026898;28;20375;-85
2020/12/09 06:28:21;;;;;;;6.45;5.43;;;;;;;;;;5025242;28;20175;-84
2020/12/09 06:30:47;;;;;;;8.73;4.75;;;;;;;;;;5021771;28;20179;-83
2020/12/09 06:33:27;;;;;;;6.68;5.15;;;;;;;;;;5012924;28;20191;-84
2020/12/09 06:36:09;;;;;;;8.60;4.90;;;;;;;;;;5032043;28;20208;-84
2020/12/09 06:38:35;;;;;;;8.48;5.97;;;;;;;;;;5024261;28;20174;-84
2020/12/09 06:41:03;;;;;;;5.30;4.80;;;;;;;;;;5036525;28;20195;-84
2020/12/09 06:43:30;;;;;;;6.85;5.13;;;;;;;;;;5040990;28;20221;-84
2020/12/09 06:45:56;;;;;;;7.50;5.20;;;;;;;;;;5020859;28;20178;-82
2020/12/09 06:48:22;;;;;;;7.32;5.63;;;;;;;;;;5025479;28;20179;-84
2020/12/09 06:50:48;;;;;;;7.47;5.47;;;;;;;;;;5026247;28;20229;-82
2020/12/09 06:53:24;;;;;;;6.47;4.95;;;;;;;;;;5040853;28;20209;-84
2020/12/09 06:55:51;;;;;;;6.30;5.20;;;;;;;;;;5025674;28;20193;-84
2020/12/09 06:58:30;;;;;;;8.60;5.28;;;;;;;;;;5025240;28;20190;-84
2020/12/09 07:01:00;;;;;;;6.45;5.45;;;;;;;;;;5010923;28;20187;-84
2020/12/09 07:03:27;;;;;;;5.38;4.47;;;;;;;;;;5041084;28;20226;-84
2020/12/09 07:05:53;;;;;;;7.05;5.15;;;;;;;;;;5042077;28;20621;-84
2020/12/09 07:08:19;;;;;;;6.57;5.05;;;;;;;;;;5040261;28;20229;-84
2020/12/09 07:10:45;;;;;;;5.75;4.32;;;;;;;;;;5024051;28;20179;-83
2020/12/09 07:13:12;;;;;;;6.82;5.28;;;;;;;;;;5024253;28;20809;-84
2020/12/09 07:15:45;;;;;;;6.07;4.47;;;;;;;;;;5023833;28;20530;-84
2020/12/09 07:18:11;;;;;;;9.35;5.63;;;;;;;;;;5018943;28;20182;-84
2020/12/09 07:20:38;;;;;;;8.13;5.85;;;;;;;;;;5040806;28;20242;-84
2020/12/09 07:23:04;;;;;;;7.55;5.47;;;;;;;;;;5024235;28;20210;-84
2020/12/09 07:25:31;;;;;;;6.82;5.22;;;;;;;;;;5023103;28;20242;-82
2020/12/09 07:27:57;;;;;;;7.38;6.10;;;;;;;;;;5027541;28;20713;-81
2020/12/09 07:30:23;;;;;;;8.65;5.80;;;;;;;;;;5023899;28;20182;-82
2020/12/09 07:32:50;;;;;;;8.15;5.85;;;;;;;;;;5023579;28;20222;-82
2020/12/09 07:35:17;;;;;;;6.82;5.10;;;;;;;;;;5040081;28;20190;-82
2020/12/09 07:37:45;;;;;;;8.70;6.45;;;;;;;;;;5039278;28;20250;-82
2020/12/09 07:40:24;;;;;;;8.35;6.30;;;;;;;;;;5040138;28;20178;-81
2020/12/09 07:43:04;;;;;;;14.75;8.07;;;;;;;;;;5023123;28;20198;-81
2020/12/09 07:45:30;;;;;;;11.23;8.00;;;;;;;;;;5036867;28;20217;-81
2020/12/09 07:48:07;;;;;;;8.60;7.10;;;;;;;;;;5039489;28;20294;-79
2020/12/09 07:50:33;;;;;;;9.77;7.00;;;;;;;;;;5016648;28;20206;-80
2020/12/09 07:52:59;;;;;;;10.20;6.55;;;;;;;;;;5024435;28;20174;-81
2020/12/09 07:55:26;;;;;;;8.88;6.90;;;;;;;;;;5022726;28;20193;-81
2020/12/09 07:57:52;;;;;;;9.55;6.30;;;;;;;;;;5010040;28;20174;-81
2020/12/09 08:00:19;;;;;;;8.93;6.85;;;;;;;;;;5024726;28;20254;-82
2020/12/09 08:02:46;;;;;;;10.55;6.50;;;;;;;;;;5024086;28;20216;-81
2020/12/09 08:05:14;;;;;;;8.05;5.82;;;;;;;;;;5023442;28;20189;-81
2020/12/09 08:07:50;;;;;;;10.90;7.50;;;;;;;;;;5021415;28;20365;-81
2020/12/09 08:10:20;;;;;;;6.95;6.22;;;;;;;;;;5010700;28;20277;-84
2020/12/09 08:12:46;;;;;;;9.50;6.75;;;;;;;;;;5013822;28;20183;-81
2020/12/09 08:15:12;;;;;;;9.00;6.22;;;;;;;;;;5024523;28;20239;-82
2020/12/09 08:17:38;;;;;;;8.13;6.63;;;;;;;;;;5017544;28;20175;-82
2020/12/09 08:20:08;;;;;;;11.85;7.95;;;;;;;;;;5013748;28;20194;-83
2020/12/09 08:22:54;;;;;;;10.05;7.68;;;;;;;;;;5012052;28;20206;-83
2020/12/09 08:25:20;;;;;;;8.30;6.90;;;;;;;;;;5019779;28;20197;-83
2020/12/09 08:27:46;;;;;;;10.85;7.88;;;;;;;;;;5020925;28;20228;-82
2020/12/09 08:30:23;;;;;;;13.43;7.90;;;;;;;;;;5015233;28;20238;-83
2020/12/09 08:33:07;;;;;;;10.15;7.60;;;;;;;;;;5018158;28;20198;-80
2020/12/09 08:35:44;;;;;;;9.15;7.47;;;;;;;;;;5018542;28;20195;-83
2020/12/09 08:38:13;;;;;;;16.48;8.27;;;;;;;;;;5032924;28;20212;-83
2020/12/09 08:40:39;;;;;;;11.13;7.55;;;;;;;;;;5023183;28;20171;-81
2020/12/09 08:43:05;;;;;;;12.77;8.15;;;;;;;;;;5023445;28;20274;-81
2020/12/09 08:45:31;;;;;;;9.38;7.90;;;;;;;;;;5024349;28;20178;-81
2020/12/09 08:47:57;;;;;;;12.40;7.60;;;;;;;;;;5021319;28;20186;-82
2020/12/09 08:50:23;;;;;;;10.35;7.97;;;;;;;;;;5022815;28;20175;-81
2020/12/09 08:52:49;;;;;;;11.23;7.50;;;;;;;;;;5022039;28;20174;-81
2020/12/09 08:55:15;;;;;;;12.07;8.00;;;;;;;;;;5024327;28;20218;-82
2020/12/09 08:57:41;;;;;;;11.02;8.05;;;;;;;;;;5023064;28;20674;-82
2020/12/09 09:00:07;;;;;;;10.30;7.60;;;;;;;;;;5022941;28;20197;-81
2020/12/09 09:02:33;;;;;;;14.38;8.70;;;;;;;;;;5020223;28;20218;-81
2020/12/09 09:04:59;;;;;;;12.45;8.85;;;;;;;;;;5011219;28;20179;-82
2020/12/09 09:07:26;;;;;;;10.80;8.38;;;;;;;;;;5018468;28;20226;-81
2020/12/09 09:09:52;;;;;;;10.93;7.18;;;;;;;;;;5017029;28;20178;-81
2020/12/09 09:12:18;;;;;;;12.77;8.55;;;;;;;;;;5036055;28;20186;-80
2020/12/09 09:14:44;;;;;;;13.18;9.20;;;;;;;;;;5038083;28;20209;-82
2020/12/09 09:17:10;;;;;;;11.55;7.80;;;;;;;;;;5024225;28;20190;-82
2020/12/09 09:19:36;;;;;;;9.73;8.73;;;;;;;;;;5022124;28;20189;-83
2020/12/09 09:22:02;;;;;;;10.48;7.30;;;;;;;;;;5019908;28;20195;-81
2020/12/09 09:24:28;;;;;;;9.82;7.65;;;;;;;;;;5022019;28;20178;-82
2020/12/09 09:26:54;;;;;;;11.43;8.63;;;;;;;;;;5017263;28;20182;-83
2020/12/09 09:29:20;;;;;;;9.73;7.72;;;;;;;;;;5012558;28;20183;-82
2020/12/09 09:31:46;;;;;;;11.20;7.93;;;;;;;;;;5020511;28;20186;-82
2020/12/09 09:34:12;;;;;;;12.05;8.05;;;;;;;;;;5022554;28;20178;-82
2020/12/09 09:36:41;;;;;;;11.00;7.80;;;;;;;;;;5026905;28;20209;-82
2020/12/09 09:39:07;;;;;;;9.95;8.35;;;;;;;;;;5023028;28;20191;-82
2020/12/09 09:41:35;;;;;;;10.38;8.43;;;;;;;;;;5017762;28;20173;-81
2020/12/09 09:44:01;;;;;;;10.10;8.00;;;;;;;;;;5020860;28;20297;-82
2020/12/09 09:46:27;;;;;;;12.10;8.70;;;;;;;;;;5021907;28;20182;-82
2020/12/09 09:48:53;;;;;;;8.98;7.10;;;;;;;;;;5022767;28;20206;-82
2020/12/09 09:51:19;;;;;;;9.13;7.95;;;;;;;;;;5023389;28;20183;-81
2020/12/09 09:53:45;;;;;;;13.30;7.85;;;;;;;;;;5021918;28;20586;-82
2020/12/09 09:56:11;;;;;;;16.05;7.90;;;;;;;;;;5018599;28;20190;-82
2020/12/09 09:58:37;;;;;;;12.05;7.43;;;;;;;;;;5013148;28;20182;-82
2020/12/09 10:01:03;;;;;;;9.82;8.20;;;;;;;;;;5027250;28;20179;-82
2020/12/09 10:03:29;;;;;;;10.82;7.53;;;;;;;;;;5030310;28;20240;-82
2020/12/09 10:05:55;;;;;;;12.43;8.05;;;;;;;;;;5025403;28;20190;-81
2020/12/09 10:08:21;;;;;;;10.00;8.07;;;;;;;;;;5041434;28;20221;-82
2020/12/09 10:10:47;;;;;;;10.32;8.70;;;;;;;;;;5026504;28;20186;-82
2020/12/09 10:13:13;;;;;;;10.13;8.20;;;;;;;;;;5049254;28;20424;-82
2020/12/09 10:15:40;;;;;;;10.70;8.40;;;;;;;;;;5032782;28;20429;-81
2020/12/09 10:18:06;;;;;;;9.13;7.40;;;;;;;;;;5062265;28;20220;-81
2020/12/09 10:20:32;;;;;;;9.88;7.75;;;;;;;;;;5043438;28;20179;-80
2020/12/09 10:22:58;;;;;;;10.10;7.72;;;;;;;;;;5025467;28;20209;-82
2020/12/09 10:25:24;;;;;;;8.52;7.30;;;;;;;;;;5025410;28;20182;-81
2020/12/09 10:27:50;;;;;;;10.40;7.63;;;;;;;;;;5024478;28;20241;-81
2020/12/09 10:30:16;;;;;;;9.70;7.53;;;;;;;;;;5026705;28;20246;-82
2020/12/09 10:32:42;;;;;;;9.77;7.97;;;;;;;;;;5025759;28;20262;-79
2020/12/09 10:35:08;;;;;;;14.00;7.82;;;;;;;;;;5029713;28;20189;-81
2020/12/09 10:37:34;;;;;;;10.55;8.35;;;;;;;;;;5032278;28;20182;-79
2020/12/09 10:40:00;;;;;;;10.77;8.18;;;;;;;;;;5023886;28;20193;-82
2020/12/09 10:42:26;;;;;;;9.90;8.20;;;;;;;;;;5026077;28;21137;-81
2020/12/09 10:44:52;;;;;;;10.30;7.68;;;;;;;;;;5025356;28;20183;-82
2020/12/09 10:47:18;;;;;;;11.13;7.72;;;;;;;;;;5026760;28;20277;-82
2020/12/09 10:49:44;;;;;;;10.18;8.15;;;;;;;;;;5024624;28;20273;-81
2020/12/09 10:52:11;;;;;;;11.32;7.55;;;;;;;;;;5055498;28;20183;-82
2020/12/09 10:54:37;;;;;;;12.60;9.25;;;;;;;;;;5026447;28;20175;-81
2020/12/09 10:57:04;;;;;;;16.45;8.70;;;;;;;;;;5025878;28;20194;-82
2020/12/09 10:59:31;;;;;;;10.32;8.30;;;;;;;;;;5026072;28;20202;-82
2020/12/09 11:01:57;;;;;;;11.45;8.45;;;;;;;;;;5026228;28;20178;-82
2020/12/09 11:04:23;;;;;;;11.77;9.05;;;;;;;;;;5016682;28;20190;-82
2020/12/09 11:06:49;;;;;;;10.40;8.02;;;;;;;;;;5007942;28;20222;-81
2020/12/09 11:09:15;;;;;;;10.68;9.07;;;;;;;;;;5025807;28;20250;-82
2020/12/09 11:11:50;;;;;;;10.90;8.77;;;;;;;;;;5017055;28;20175;-82
2020/12/09 11:14:19;;;;;;;15.48;8.80;;;;;;;;;;5026888;28;20182;-81
2020/12/09 11:16:45;;;;;;;11.38;7.95;;;;;;;;;;5024349;28;20178;-82
2020/12/09 11:19:11;;;;;;;9.95;7.65;;;;;;;;;;5023827;28;20246;-82
2020/12/09 11:21:40;;;;;;;10.10;8.10;;;;;;;;;;5024148;28;20194;-83
2020/12/09 11:24:06;;;;;;;9.20;7.47;;;;;;;;;;5024435;28;20214;-83
2020/12/09 11:26:32;;;;;;;12.98;8.60;;;;;;;;;;5025659;28;20186;-83
2020/12/09 11:28:58;;;;;;;15.38;8.57;;;;;;;;;;5024478;28;20216;-82
2020/12/09 11:31:25;;;;;;;10.52;8.07;;;;;;;;;;5026154;28;20178;-79
2020/12/09 11:33:52;;;;;;;10.43;8.32;;;;;;;;;;5006421;28;20214;-83
2020/12/09 11:36:25;;;;;;;10.30;8.05;;;;;;;;;;5020855;28;20255;-82
2020/12/09 11:38:51;;;;;;;9.68;8.23;;;;;;;;;;5014995;28;20209;-82
2020/12/09 11:41:28;;;;;;;10.88;7.93;;;;;;;;;;5027679;28;20190;-82
2020/12/09 11:43:55;;;;;;;10.95;8.50;;;;;;;;;;5031632;28;20293;-81
2020/12/09 11:46:22;;;;;;;11.70;9.10;;;;;;;;;;5023961;28;20248;-82
2020/12/09 11:48:48;;;;;;;12.90;8.70;;;;;;;;;;5024905;28;20705;-82
2020/12/09 11:51:14;;;;;;;13.50;9.43;;;;;;;;;;5024625;28;20250;-82
2020/12/09 11:53:40;;;;;;;11.23;8.90;;;;;;;;;;5024406;28;20246;-83
2020/12/09 11:56:06;;;;;;;11.88;8.90;;;;;;;;;;5040157;28;20570;-83
2020/12/09 11:58:32;;;;;;;12.05;9.02;;;;;;;;;;5024472;28;20190;-81
2020/12/09 12:00:58;;;;;;;10.20;8.68;;;;;;;;;;5023041;28;20258;-83
2020/12/09 12:03:25;;;;;;;11.57;9.45;;;;;;;;;;5032819;28;20218;-81
2020/12/09 12:05:53;;;;;;;13.65;9.80;;;;;;;;;;5019764;28;20536;-82
2020/12/09 12:08:19;;;;;;;12.88;9.50;;;;;;;;;;5013948;28;20295;-82
2020/12/09 12:10:45;;;;;;;10.35;7.68;;;;;;;;;;5017339;28;20193;-82
2020/12/09 12:13:11;;;;;;;11.40;10.05;;;;;;;;;;5018507;28;20206;-83
2020/12/09 12:15:37;;;;;;;10.77;7.50;;;;;;;;;;5022872;28;20190;-83
2020/12/09 12:18:04;;;;;;;8.67;7.33;;;;;;;;;;5019113;28;20202;-83
2020/12/09 12:20:30;;;;;;;11.95;7.88;;;;;;;;;;5022391;28;20809;-83
2020/12/09 12:22:56;;;;;;;9.23;7.68;;;;;;;;;;5019842;28;20636;-82
2020/12/09 12:25:22;;;;;;;14.15;9.45;;;;;;;;;;5018132;28;20182;-83
2020/12/09 12:27:48;;;;;;;9.77;7.45;;;;;;;;;;5023428;28;20200;-82
2020/12/09 12:30:14;;;;;;;10.60;8.02;;;;;;;;;;5015120;28;20187;-81
2020/12/09 12:32:40;;;;;;;11.20;7.80;;;;;;;;;;5027498;28;20178;-83
2020/12/09 12:35:06;;;;;;;8.80;7.80;;;;;;;;;;5011595;28;20186;-82
2020/12/09 12:37:33;;;;;;;11.43;8.15;;;;;;;;;;5018899;28;20182;-83
2020/12/09 12:39:59;;;;;;;10.52;8.93;;;;;;;;;;5026151;28;20185;-84
2020/12/09 12:42:25;;;;;;;10.07;8.75;;;;;;;;;;5044010;28;20701;-82
2020/12/09 12:44:51;;;;;;;11.57;8.40;;;;;;;;;;5018047;28;20183;-82
2020/12/09 12:47:17;;;;;;;10.05;9.02;;;;;;;;;;5020748;28;20185;-83
2020/12/09 12:49:43;;;;;;;12.50;8.35;;;;;;;;;;5020922;28;20596;-82
2020/12/09 12:52:09;;;;;;;12.77;10.02;;;;;;;;;;5021365;28;20183;-83
2020/12/09 12:54:36;;;;;;;12.10;8.50;;;;;;;;;;5018236;28;20229;-83
2020/12/09 12:57:02;;;;;;;9.13;8.20;;;;;;;;;;5015327;28;20179;-83
2020/12/09 12:59:28;;;;;;;12.75;8.52;;;;;;;;;;5012467;28;20186;-83
2020/12/09 13:01:59;;;;;;;12.18;9.25;;;;;;;;;;5031787;28;20189;-84
2020/12/09 13:04:25;;;;;;;10.30;8.75;;;;;;;;;;5017893;28;20170;-83
2020/12/09 13:06:51;;;;;;;10.38;8.98;;;;;;;;;;5011074;28;20245;-83
2020/12/09 13:09:17;;;;;;;17.83;10.33;;;;;;;;;;5022652;28;20178;-84
2020/12/09 13:11:44;;;;;;;9.60;8.60;;;;;;;;;;5025189;28;21096;-83
2020/12/09 13:14:10;;;;;;;12.30;10.23;;;;;;;;;;5018417;28;20508;-83
2020/12/09 13:16:36;;;;;;;14.10;8.95;;;;;;;;;;5022769;28;20281;-84
2020/12/09 13:19:02;;;;;;;11.20;9.63;;;;;;;;;;5024175;28;20253;-82
2020/12/09 13:21:28;;;;;;;10.43;9.25;;;;;;;;;;5008379;28;20197;-78
2020/12/09 13:23:54;;;;;;;11.63;8.95;;;;;;;;;;5018664;28;20202;-83
2020/12/09 13:26:21;;;;;;;12.45;9.63;;;;;;;;;;5015050;28;20232;-83
2020/12/09 13:28:47;;;;;;;13.40;10.82;;;;;;;;;;5020144;28;20178;-83
2020/12/09 13:31:13;;;;;;;13.43;9.20;;;;;;;;;;5018308;28;20213;-83
2020/12/09 13:33:39;;;;;;;14.63;10.85;;;;;;;;;;5012968;28;20189;-83
2020/12/09 13:36:05;;;;;;;16.63;10.20;;;;;;;;;;5045621;28;20247;-83
2020/12/09 13:38:31;;;;;;;11.55;9.40;;;;;;;;;;5024302;28;20254;-83
2020/12/09 13:40:57;;;;;;;13.43;9.07;;;;;;;;;;5018917;28;20178;-84
2020/12/09 13:43:23;;;;;;;11.65;8.10;;;;;;;;;;5014883;28;20321;-84
2020/12/09 13:45:49;;;;;;;11.40;8.80;;;;;;;;;;5023830;28;20526;-83
2020/12/09 13:48:15;;;;;;;12.60;8.55;;;;;;;;;;5010495;28;20191;-82
2020/12/09 13:50:41;;;;;;;12.57;9.25;;;;;;;;;;5011791;28;20690;-83
2020/12/09 13:53:07;;;;;;;13.43;9.13;;;;;;;;;;5012609;28;20190;-84
2020/12/09 13:55:33;;;;;;;16.92;9.25;;;;;;;;;;5036249;28;20261;-84
2020/12/09 13:57:59;;;;;;;11.30;9.13;;;;;;;;;;5053158;28;20179;-83
2020/12/09 14:00:25;;;;;;;13.90;9.33;;;;;;;;;;5025657;28;20437;-83
2020/12/09 14:02:52;;;;;;;12.33;9.10;;;;;;;;;;5026884;28;20469;-83
2020/12/09 14:05:18;;;;;;;11.40;9.43;;;;;;;;;;5026799;28;20504;-82
2020/12/09 14:07:45;;;;;;;10.20;8.10;;;;;;;;;;5024229;28;20559;-83
2020/12/09 14:10:11;;;;;;;13.32;9.95;;;;;;;;;;5041141;28;20510;-84
2020/12/09 14:12:37;;;;;;;15.25;10.02;;;;;;;;;;5036620;28;20199;-83
2020/12/09 14:15:03;;;;;;;14.45;10.05;;;;;;;;;;5025195;28;20224;-84
2020/12/09 14:17:29;;;;;;;16.75;9.95;;;;;;;;;;5026837;28;20186;-84
2020/12/09 14:19:57;;;;;;;13.77;11.25;;;;;;;;;;5021643;28;20305;-84
2020/12/09 14:22:24;;;;;;;14.60;10.30;;;;;;;;;;5021927;28;20287;-83
2020/12/09 14:24:50;;;;;;;12.20;9.63;;;;;;;;;;5024895;28;20170;-84
2020/12/09 14:27:16;;;;;;;12.55;9.20;;;;;;;;;;5025991;28;20273;-83
2020/12/09 14:29:42;;;;;;;15.50;10.18;;;;;;;;;;5041773;28;20190;-81